Aviation Digital Data Service (ADDS)

Output produced by METARs form (0558 UTC 18 January 2018)
found at http://www.aviationweather.gov/adds/metars/
 
METAR text: KHAE 180535Z AUTO 23011KT 10SM CLR M07/M13 A3039 RMK AO2
Conditions at: KHAE (HANNIBAL , MO, US) observed 0535 UTC 18 January 2018
Temperature: -7.0°C (19°F)
Dewpoint: -13.0°C (9°F) [RH = 62%]
Pressure (altimeter): 30.39 inches Hg (1029.2 mb)
Winds: from the SW (230 degrees) at 13 MPH (11 knots; 5.7 m/s)
Visibility: 10 or more miles (16+ km)
Ceiling: at least 12,000 feet AGL
Clouds: sky clear below 12,000 feet AGL
Weather: automated observation with no human augmentation;
there may or may not be significant weather present at this time